Time;durP1;ratioP1;P1;durP2;ratioP2;P2;SDS_P1;SDS_P2;PMS_P1;PMS_P2;Temp;Humidity;BMP_temperature;BMP_pressure;BME280_temperature;BME280_humidity;BME280_pressure;Samples;Min_cycle;Max_cycle;Signal;HPM_P1;HPM_P2
2022/08/08 00:02:42;;;;;;;1999.90;999.90;;;15.10;99.90;;;;;;4971180;28;20631;-83
2022/08/08 00:05:17;;;;;;;1999.90;999.90;;;15.10;99.90;;;;;;4944438;29;20871;-82
2022/08/08 00:07:49;;;;;;;1999.90;999.90;;;15.10;99.90;;;;;;4964245;28;20396;-83
2022/08/08 00:10:21;;;;;;;1999.90;999.90;;;15.10;99.90;;;;;;4965484;28;20421;-83
2022/08/08 00:13:12;;;;;;;1999.90;999.90;;;15.10;99.90;;;;;;4965236;28;20493;-81
2022/08/08 00:16:10;;;;;;;1999.90;999.90;;;15.10;99.90;;;;;;4957849;28;20408;-82
2022/08/08 00:19:13;;;;;;;1999.90;999.90;;;15.10;99.90;;;;;;4963429;28;20404;-83
2022/08/08 00:21:47;;;;;;;1999.90;999.90;;;15.10;99.90;;;;;;5227964;23;20435;-80
2022/08/08 00:24:30;;;;;;;1999.90;999.90;;;15.10;99.90;;;;;;4923547;29;20422;-81
2022/08/08 00:27:04;;;;;;;1999.90;999.90;;;15.10;99.90;;;;;;4924324;29;20881;-80
2022/08/08 00:29:46;;;;;;;1999.90;999.90;;;15.10;99.90;;;;;;4924377;29;20580;-81
2022/08/08 00:32:41;;;;;;;1999.90;999.90;;;15.10;99.90;;;;;;4938899;28;20422;-81
2022/08/08 00:35:26;;;;;;;1999.90;999.90;;;15.10;99.90;;;;;;4938842;28;20508;-80
2022/08/08 00:38:18;;;;;;;1999.90;999.90;;;15.10;99.90;;;;;;4932734;28;20411;-81
2022/08/08 00:41:09;;;;;;;1999.90;999.90;;;15.10;99.90;;;;;;4925446;29;20795;-80
2022/08/08 00:44:13;;;;;;;1999.90;999.90;;;15.00;99.90;;;;;;4939190;29;21387;-81
2022/08/08 00:47:12;;;;;;;1999.90;999.90;;;15.00;99.90;;;;;;4941916;28;20424;-80
2022/08/08 00:49:50;;;;;;;1999.90;999.90;;;15.00;99.90;;;;;;4921323;29;20928;-81
2022/08/08 00:53:03;;;;;;;1999.90;999.90;;;15.00;99.90;;;;;;4923652;29;20897;-81
2022/08/08 00:55:40;;;;;;;1999.90;999.90;;;15.00;99.90;;;;;;4922181;29;20431;-80
2022/08/08 00:58:52;;;;;;;1999.90;999.90;;;15.00;99.90;;;;;;4939308;29;20427;-80
2022/08/08 01:01:32;;;;;;;1999.90;999.90;;;15.00;99.90;;;;;;4939735;28;20413;-80
2022/08/08 01:05:13;;;;;;;1999.90;999.90;;;14.90;99.90;;;;;;4918479;29;20817;-81
2022/08/08 01:08:21;;;;;;;1999.90;999.90;;;15.00;99.90;;;;;;4938804;29;20405;-81
2022/08/08 01:11:10;;;;;;;1999.90;999.90;;;15.10;99.90;;;;;;4942573;28;20418;-80
2022/08/08 01:13:54;;;;;;;1999.90;999.90;;;15.10;99.90;;;;;;4932268;29;20425;-81
2022/08/08 01:16:45;;;;;;;1999.90;999.90;;;15.10;99.90;;;;;;4937338;28;20446;-80
2022/08/08 01:19:41;;;;;;;1999.90;999.90;;;15.10;99.90;;;;;;4938389;28;20987;-80
2022/08/08 01:22:54;;;;;;;1999.90;999.90;;;15.10;99.90;;;;;;4931805;28;20414;-80
2022/08/08 01:26:01;;;;;;;1999.90;999.90;;;15.10;99.90;;;;;;4938043;28;20419;-81
2022/08/08 01:29:00;;;;;;;1999.90;999.90;;;15.10;99.90;;;;;;4938759;28;20477;-81
2022/08/08 01:32:09;;;;;;;1999.90;999.90;;;15.10;99.90;;;;;;4931859;28;20477;-80
2022/08/08 01:35:08;;;;;;;1999.90;999.90;;;15.00;99.90;;;;;;4936709;28;20408;-81
2022/08/08 01:38:06;;;;;;;1999.90;999.90;;;15.10;99.90;;;;;;4938259;28;20418;-80
2022/08/08 01:40:56;;;;;;;1999.90;999.90;;;15.00;99.90;;;;;;4932405;29;20418;-81
2022/08/08 01:43:43;;;;;;;1999.90;999.90;;;15.00;99.90;;;;;;4941983;28;20429;-81
2022/08/08 01:46:57;;;;;;;1999.90;999.90;;;15.00;99.90;;;;;;4942641;28;20788;-80
2022/08/08 01:49:58;;;;;;;1999.90;999.90;;;15.00;99.90;;;;;;4943442;29;20408;-80
2022/08/08 01:52:54;;;;;;;1999.90;999.90;;;15.00;99.90;;;;;;4931470;29;20909;-81
2022/08/08 01:56:01;;;;;;;1999.90;999.90;;;15.00;99.90;;;;;;4933137;29;20777;-80
2022/08/08 01:59:17;;;;;;;1999.90;999.90;;;14.90;99.90;;;;;;4919275;29;20417;-80
2022/08/08 02:02:13;;;;;;;1999.90;999.90;;;14.90;99.90;;;;;;4942034;28;20405;-80
2022/08/08 02:05:21;;;;;;;1999.90;999.90;;;14.90;99.90;;;;;;4932954;29;20962;-80
2022/08/08 02:08:10;;;;;;;1999.90;999.90;;;14.90;99.90;;;;;;4935707;29;20813;-80
2022/08/08 02:10:53;;;;;;;1999.90;999.90;;;14.90;99.90;;;;;;4942748;29;20494;-82
2022/08/08 02:13:37;;;;;;;1999.90;999.90;;;14.90;99.90;;;;;;4927018;29;20463;-81
2022/08/08 02:16:36;;;;;;;1999.90;999.90;;;14.90;99.90;;;;;;4936910;28;20402;-81
2022/08/08 02:19:18;;;;;;;1999.90;999.90;;;14.90;99.90;;;;;;4935149;29;20421;-80
2022/08/08 02:22:31;;;;;;;1999.90;999.90;;;14.90;99.90;;;;;;4920092;29;20875;-80
2022/08/08 02:25:41;;;;;;;1999.90;999.90;;;14.90;99.90;;;;;;4938981;28;20506;-80
2022/08/08 02:28:37;;;;;;;1999.90;999.90;;;14.90;99.90;;;;;;4942372;28;20421;-81
2022/08/08 02:31:28;;;;;;;1999.90;999.90;;;14.80;99.90;;;;;;4935798;29;20426;-80
2022/08/08 02:34:32;;;;;;;1999.90;999.90;;;14.90;99.90;;;;;;4943018;28;20418;-81
2022/08/08 02:37:27;;;;;;;1999.90;999.90;;;14.80;99.90;;;;;;4943028;28;20445;-80
2022/08/08 02:40:18;;;;;;;1999.90;999.90;;;14.80;99.90;;;;;;4940732;28;20897;-80
2022/08/08 02:43:09;;;;;;;1999.90;999.90;;;14.80;99.90;;;;;;4940874;28;20419;-79
2022/08/08 02:46:10;;;;;;;1999.90;999.90;;;14.80;99.90;;;;;;4940769;28;20414;-81
2022/08/08 02:48:53;;;;;;;1999.90;999.90;;;14.80;99.90;;;;;;4934668;29;20875;-81
2022/08/08 02:51:40;;;;;;;1999.90;999.90;;;14.80;99.90;;;;;;4932769;29;20954;-80
2022/08/08 02:55:00;;;;;;;1999.90;999.90;;;14.70;99.90;;;;;;4939683;29;20440;-80
2022/08/08 02:58:09;;;;;;;1999.90;999.90;;;14.80;99.90;;;;;;4938934;28;20572;-80
2022/08/08 03:01:03;;;;;;;1999.90;999.90;;;14.70;99.90;;;;;;4944397;28;20400;-81
2022/08/08 03:03:58;;;;;;;1999.90;999.90;;;14.80;99.90;;;;;;4924174;29;20411;-81
2022/08/08 03:07:17;;;;;;;1999.90;999.90;;;14.80;99.90;;;;;;4937389;28;20705;-81
2022/08/08 03:10:17;;;;;;;1999.90;999.90;;;14.70;99.90;;;;;;4934114;29;20908;-81
2022/08/08 03:13:34;;;;;;;1999.90;999.90;;;14.80;99.90;;;;;;4942326;28;20418;-80
2022/08/08 03:16:49;;;;;;;1999.90;999.90;;;14.70;99.90;;;;;;4918600;29;20899;-81
2022/08/08 03:19:23;;;;;;;1999.90;999.90;;;14.70;99.90;;;;;;4925696;29;20427;-81
2022/08/08 03:21:54;;;;;;;1999.90;999.90;;;14.70;99.90;;;;;;4933573;28;20540;-81
2022/08/08 03:24:28;;;;;;;1999.90;999.90;;;14.70;99.90;;;;;;4940823;28;20415;-80
2022/08/08 03:27:14;;;;;;;1999.90;999.90;;;14.70;99.90;;;;;;4942355;28;20410;-80
2022/08/08 03:29:50;;;;;;;1999.90;999.90;;;14.70;99.90;;;;;;4921918;29;20506;-81
2022/08/08 03:35:29;;;;;;;1999.90;999.90;;;14.70;99.90;;;;;;4939727;28;20442;-81
2022/08/08 03:38:01;;;;;;;1999.90;999.90;;;14.70;99.90;;;;;;4936436;28;20404;-80
2022/08/08 03:40:53;;;;;;;1999.90;999.90;;;14.70;99.90;;;;;;4921860;29;20770;-80
2022/08/08 03:43:25;;;;;;;1999.90;999.90;;;14.70;99.90;;;;;;4939285;29;20401;-80
2022/08/08 03:46:05;;;;;;;1999.90;999.90;;;14.70;99.90;;;;;;4927747;29;20403;-81
2022/08/08 03:48:39;;;;;;;1999.90;999.90;;;14.70;99.90;;;;;;4938745;29;20405;-80
2022/08/08 03:51:35;;;;;;;1999.90;999.90;;;14.80;99.90;;;;;;4924139;29;20432;-80
2022/08/08 03:54:22;;;;;;;1999.90;999.90;;;14.80;99.90;;;;;;4941022;29;20425;-80
2022/08/08 03:57:15;;;;;;;1999.90;999.90;;;14.70;99.90;;;;;;4943749;28;20929;-81
2022/08/08 04:00:11;;;;;;;1999.90;999.90;;;14.80;99.90;;;;;;4924687;29;20418;-81
2022/08/08 04:02:55;;;;;;;1999.90;999.90;;;14.80;99.90;;;;;;4939627;28;20489;-81
2022/08/08 04:05:28;;;;;;;1999.90;999.90;;;14.80;99.90;;;;;;4930233;29;20503;-80
2022/08/08 04:08:05;;;;;;;1999.90;999.90;;;14.80;99.90;;;;;;4956721;28;20420;-79
2022/08/08 04:10:35;;;;;;;1999.90;999.90;;;14.70;99.90;;;;;;4936433;29;20406;-81
2022/08/08 04:13:05;;;;;;;1999.90;999.90;;;14.70;99.90;;;;;;4941603;28;20413;-81
2022/08/08 04:15:53;;;;;;;1999.90;999.90;;;14.80;99.90;;;;;;4930014;29;20454;-81
2022/08/08 04:18:41;;;;;;;1999.90;999.90;;;14.80;99.90;;;;;;4937680;28;20455;-81
2022/08/08 04:21:18;;;;;;;1999.90;999.90;;;14.70;99.90;;;;;;4936190;29;20822;-81
2022/08/08 04:23:54;;;;;;;1999.90;999.90;;;14.80;99.90;;;;;;4940123;28;20511;-81
2022/08/08 04:26:43;;;;;;;1999.90;999.90;;;14.80;99.90;;;;;;4945092;28;20772;-80
2022/08/08 04:29:24;;;;;;;1999.90;999.90;;;14.80;99.90;;;;;;4930261;29;20409;-81
2022/08/08 04:31:52;;;;;;;1999.90;999.90;;;14.80;99.90;;;;;;4938736;28;20848;-80
2022/08/08 04:34:27;;;;;;;1999.90;999.90;;;14.80;99.90;;;;;;4920925;29;20406;-80
2022/08/08 04:37:03;;;;;;;1999.90;999.90;;;14.80;99.90;;;;;;4938483;29;20439;-80
2022/08/08 04:39:32;;;;;;;1999.90;999.90;;;14.80;99.90;;;;;;4938883;28;20467;-80
2022/08/08 04:42:19;;;;;;;1999.90;999.90;;;14.80;99.90;;;;;;4940811;28;20414;-81
2022/08/08 04:44:51;;;;;;;1999.90;999.90;;;14.80;99.90;;;;;;4922932;28;20421;-82
2022/08/08 04:47:21;;;;;;;1999.90;999.90;;;14.80;99.90;;;;;;4930980;29;20505;-82
2022/08/08 04:49:51;;;;;;;1999.90;999.90;;;14.80;99.90;;;;;;4942961;29;20410;-80
2022/08/08 04:52:34;;;;;;;1999.90;999.90;;;14.70;99.90;;;;;;4942929;28;20421;-80
2022/08/08 04:55:09;;;;;;;1999.90;999.90;;;14.70;99.90;;;;;;4930423;28;20430;-81
2022/08/08 04:57:37;;;;;;;1999.90;999.90;;;14.70;99.90;;;;;;4938975;28;20407;-82
2022/08/08 05:00:08;;;;;;;1999.90;999.90;;;14.70;99.90;;;;;;4931722;29;20815;-80
2022/08/08 05:02:36;;;;;;;1999.90;999.90;;;14.60;99.90;;;;;;4922262;29;20768;-80
2022/08/08 05:05:10;;;;;;;1999.90;999.90;;;14.60;99.90;;;;;;4932142;29;20408;-80
2022/08/08 05:07:58;;;;;;;1999.90;999.90;;;14.70;99.90;;;;;;4925471;29;20762;-80
2022/08/08 05:10:29;;;;;;;1999.90;999.90;;;14.70;99.90;;;;;;4937333;29;20403;-81
2022/08/08 05:13:01;;;;;;;1999.90;999.90;;;14.80;99.90;;;;;;4939307;28;20421;-81
2022/08/08 05:15:33;;;;;;;1999.90;999.90;;;14.80;99.90;;;;;;4933316;28;20418;-81
2022/08/08 05:18:21;;;;;;;1999.90;999.90;;;14.80;99.90;;;;;;4944197;28;20419;-81
2022/08/08 05:20:54;;;;;;;1999.90;999.90;;;14.80;99.90;;;;;;4941583;29;20422;-81
2022/08/08 05:23:21;;;;;;;1999.90;999.90;;;14.90;99.90;;;;;;4945295;28;20445;-81
2022/08/08 05:25:50;;;;;;;1999.90;999.90;;;14.80;99.90;;;;;;4919924;29;20410;-81
2022/08/08 05:28:27;;;;;;;1999.90;999.90;;;14.80;99.90;;;;;;4924997;29;20405;-81
2022/08/08 05:31:15;;;;;;;1999.22;999.90;;;14.80;99.90;;;;;;4934305;29;20429;-80
2022/08/08 05:34:05;;;;;;;1999.90;999.90;;;14.70;99.90;;;;;;4925357;29;20393;-80
2022/08/08 05:36:40;;;;;;;1883.85;999.90;;;14.70;99.90;;;;;;4935846;29;20778;-80
2022/08/08 05:39:10;;;;;;;1898.63;999.90;;;14.70;99.90;;;;;;4937572;28;20439;-80
2022/08/08 05:41:42;;;;;;;1994.97;999.90;;;14.70;99.90;;;;;;4917028;29;20536;-81
2022/08/08 05:44:28;;;;;;;1999.90;999.90;;;14.70;99.90;;;;;;4939602;28;20443;-80
2022/08/08 05:46:58;;;;;;;1993.78;999.90;;;14.70;99.90;;;;;;4939653;28;20480;-80
2022/08/08 05:49:31;;;;;;;1858.25;999.90;;;14.80;99.90;;;;;;4927900;29;20418;-81
2022/08/08 05:52:05;;;;;;;1999.90;999.90;;;14.80;99.90;;;;;;4952247;28;20493;-81
2022/08/08 05:54:36;;;;;;;1840.10;999.90;;;14.80;99.90;;;;;;4954038;28;20401;-81
2022/08/08 05:57:18;;;;;;;1922.83;999.90;;;14.80;99.90;;;;;;4948183;28;20414;-80
2022/08/08 06:00:10;;;;;;;1924.68;999.90;;;14.80;99.90;;;;;;4950131;28;20404;-80
2022/08/08 06:03:12;;;;;;;1955.75;999.90;;;14.80;99.90;;;;;;4931162;29;20442;-80
2022/08/08 06:06:06;;;;;;;1711.90;999.90;;;14.80;99.90;;;;;;4934053;29;20939;-81
2022/08/08 06:08:53;;;;;;;1703.57;999.90;;;14.80;99.90;;;;;;4932011;29;20470;-80
2022/08/08 06:11:41;;;;;;;1940.65;999.90;;;14.80;99.90;;;;;;4926077;29;20479;-81
2022/08/08 06:14:13;;;;;;;1807.13;999.90;;;14.90;99.90;;;;;;4943075;29;20402;-80
2022/08/08 06:16:45;;;;;;;1999.90;999.90;;;14.90;99.90;;;;;;4935641;29;20861;-80
2022/08/08 06:19:28;;;;;;;1949.00;999.90;;;15.00;99.90;;;;;;4941187;28;20442;-80
2022/08/08 06:22:01;;;;;;;1999.90;999.90;;;15.10;99.90;;;;;;4936856;28;20935;-80
2022/08/08 06:24:50;;;;;;;1997.82;999.90;;;15.10;99.90;;;;;;4925348;29;20484;-80
2022/08/08 06:27:31;;;;;;;1856.03;999.90;;;15.10;99.90;;;;;;4930467;28;20434;-80
2022/08/08 06:30:06;;;;;;;1701.72;999.90;;;15.10;99.90;;;;;;4940149;28;20516;-81
2022/08/08 06:32:50;;;;;;;1892.43;999.90;;;15.20;99.90;;;;;;4946815;28;20775;-81
2022/08/08 06:35:23;;;;;;;1868.93;999.90;;;15.20;99.90;;;;;;4930273;29;20493;-80
2022/08/08 06:38:18;;;;;;;1851.00;999.90;;;15.20;99.90;;;;;;4941285;29;20428;-80
2022/08/08 06:40:52;;;;;;;1731.05;999.90;;;15.20;99.90;;;;;;4923246;29;20423;-80
2022/08/08 06:43:29;;;;;;;1552.13;999.90;;;15.30;99.90;;;;;;4928657;29;20503;-80
2022/08/08 06:46:18;;;;;;;1821.97;999.90;;;15.30;99.90;;;;;;4945820;28;20414;-80
2022/08/08 06:48:54;;;;;;;1804.40;999.90;;;15.40;99.90;;;;;;4942337;29;20766;-80
2022/08/08 06:51:22;;;;;;;1991.93;999.90;;;15.40;99.90;;;;;;4942646;28;20469;-81
2022/08/08 06:54:12;;;;;;;1744.45;999.90;;;15.50;99.90;;;;;;4921199;29;20456;-80
2022/08/08 06:56:42;;;;;;;1923.65;999.90;;;15.50;99.90;;;;;;4936733;28;20865;-81
2022/08/08 06:59:18;;;;;;;1946.40;999.90;;;15.50;99.90;;;;;;4933428;29;20515;-80
2022/08/08 07:02:22;;;;;;;1890.25;999.90;;;15.50;99.90;;;;;;4937300;29;20414;-81
2022/08/08 07:05:04;;;;;;;1634.97;999.90;;;15.40;99.90;;;;;;4924060;29;20447;-80
2022/08/08 07:07:52;;;;;;;1999.90;999.90;;;15.40;99.90;;;;;;4942421;28;20426;-80
2022/08/08 07:10:28;;;;;;;1689.07;999.90;;;15.40;99.90;;;;;;4917416;29;20784;-81
2022/08/08 07:13:09;;;;;;;1695.82;999.90;;;15.50;99.90;;;;;;4926203;29;20424;-80
2022/08/08 07:16:03;;;;;;;1629.25;999.90;;;15.60;99.90;;;;;;4933796;28;20588;-80
2022/08/08 07:19:15;;;;;;;1376.22;999.90;;;15.60;99.90;;;;;;4938395;28;20510;-80
2022/08/08 07:21:59;;;;;;;1999.90;999.90;;;15.70;99.90;;;;;;4934756;28;20423;-80
2022/08/08 07:24:52;;;;;;;1497.10;999.90;;;15.70;99.90;;;;;;4941431;28;20434;-80
2022/08/08 07:27:25;;;;;;;1669.57;999.90;;;15.80;99.90;;;;;;4939023;28;20986;-80
2022/08/08 07:30:15;;;;;;;1493.00;999.90;;;15.80;99.90;;;;;;4939418;29;20419;-80
2022/08/08 07:32:56;;;;;;;1509.85;999.90;;;15.80;99.90;;;;;;4940513;28;20426;-80
2022/08/08 07:35:30;;;;;;;1912.05;999.90;;;15.80;99.90;;;;;;4920954;29;20458;-80
2022/08/08 07:38:04;;;;;;;1628.47;999.90;;;15.90;99.90;;;;;;4932514;29;20401;-80
2022/08/08 07:40:58;;;;;;;1748.22;999.90;;;15.90;99.90;;;;;;4938694;29;20406;-80
2022/08/08 07:43:33;;;;;;;1920.63;999.90;;;16.00;99.90;;;;;;4914489;29;20404;-80
2022/08/08 07:46:08;;;;;;;1674.63;999.90;;;16.00;99.90;;;;;;4922331;29;20398;-80
2022/08/08 07:48:51;;;;;;;1463.35;999.90;;;15.90;99.90;;;;;;4922944;29;20398;-80
2022/08/08 07:51:19;;;;;;;1357.95;999.90;;;15.90;99.90;;;;;;4926667;29;20403;-80
2022/08/08 07:54:23;;;;;;;1708.72;999.90;;;15.90;99.90;;;;;;4924374;29;20484;-80
2022/08/08 07:57:23;;;;;;;1758.60;999.90;;;15.90;99.90;;;;;;4945312;28;20471;-81
2022/08/08 08:00:06;;;;;;;1799.93;999.90;;;16.00;99.90;;;;;;4943176;28;20418;-80
2022/08/08 08:03:16;;;;;;;1527.50;999.90;;;16.00;99.90;;;;;;4931988;29;20415;-80
2022/08/08 08:05:58;;;;;;;1444.78;999.90;;;16.00;99.90;;;;;;4941288;28;20474;-80
2022/08/08 08:08:38;;;;;;;1569.88;999.90;;;15.90;99.90;;;;;;4931555;29;20470;-80
2022/08/08 08:11:20;;;;;;;1826.30;999.90;;;15.90;99.90;;;;;;4941355;28;20430;-80
2022/08/08 08:14:35;;;;;;;1999.90;999.90;;;16.00;99.90;;;;;;4938682;29;20793;-80
2022/08/08 08:17:08;;;;;;;1999.90;999.90;;;16.00;99.90;;;;;;4901028;29;20500;-81
2022/08/08 08:19:44;;;;;;;1727.05;999.90;;;16.00;99.90;;;;;;4933176;29;20920;-80
2022/08/08 08:22:18;;;;;;;1701.15;999.90;;;16.20;99.90;;;;;;4932082;28;20767;-80
2022/08/08 08:25:05;;;;;;;1480.32;999.90;;;16.20;99.90;;;;;;4936927;28;20415;-80
2022/08/08 08:27:37;;;;;;;1983.30;999.90;;;16.30;99.90;;;;;;4938163;28;20508;-80
2022/08/08 08:30:14;;;;;;;1509.93;999.90;;;16.30;99.90;;;;;;4922730;29;20893;-80
2022/08/08 08:32:43;;;;;;;1535.70;999.90;;;16.30;99.90;;;;;;4938101;28;20814;-80
2022/08/08 08:35:22;;;;;;;1657.23;999.90;;;16.40;99.90;;;;;;4938974;28;20422;-80
2022/08/08 08:38:10;;;;;;;1514.72;999.90;;;16.40;99.90;;;;;;4939276;28;20457;-80
2022/08/08 08:40:47;;;;;;;1668.28;999.90;;;16.60;99.90;;;;;;4932305;28;20419;-80
2022/08/08 08:43:19;;;;;;;1796.47;999.90;;;16.50;99.90;;;;;;4930858;29;20426;-80
2022/08/08 08:45:58;;;;;;;1636.60;999.90;;;16.40;99.90;;;;;;4939047;29;20451;-80
2022/08/08 08:48:33;;;;;;;1293.85;999.90;;;16.40;99.90;;;;;;4939647;28;20434;-80
2022/08/08 08:51:02;;;;;;;1448.15;999.90;;;16.40;99.90;;;;;;4923777;29;20393;-81
2022/08/08 08:53:36;;;;;;;1654.07;999.90;;;16.40;99.90;;;;;;4942858;28;20781;-81
2022/08/08 08:56:27;;;;;;;1499.50;999.90;;;16.50;99.90;;;;;;4930906;29;20418;-81
2022/08/08 08:59:03;;;;;;;1738.50;999.90;;;16.40;99.90;;;;;;4938724;29;20773;-80
2022/08/08 09:01:37;;;;;;;1575.90;999.90;;;16.40;99.90;;;;;;4936804;29;20396;-81
2022/08/08 09:04:22;;;;;;;1935.67;999.90;;;16.40;99.90;;;;;;4925103;29;20393;-80
2022/08/08 09:07:14;;;;;;;1659.25;999.90;;;16.50;99.90;;;;;;4942616;28;20470;-80
2022/08/08 09:09:49;;;;;;;1526.80;999.90;;;16.50;99.90;;;;;;4939381;28;20414;-81
2022/08/08 09:12:27;;;;;;;1424.03;999.90;;;16.50;99.90;;;;;;4928003;29;20449;-81
2022/08/08 09:14:57;;;;;;;1737.22;999.90;;;16.60;99.90;;;;;;4932955;29;20497;-80
2022/08/08 09:17:31;;;;;;;1468.78;999.90;;;16.60;99.90;;;;;;4913487;29;20399;-81
2022/08/08 09:20:19;;;;;;;1576.35;999.90;;;16.70;99.90;;;;;;4944618;29;20405;-80
2022/08/08 09:23:10;;;;;;;1715.70;999.90;;;16.60;99.90;;;;;;4936494;28;20425;-80
2022/08/08 09:25:55;;;;;;;1784.03;999.90;;;16.60;99.90;;;;;;4938326;28;20457;-81
2022/08/08 09:28:39;;;;;;;1570.93;999.90;;;16.60;99.90;;;;;;4931830;29;20421;-81
2022/08/08 09:31:32;;;;;;;1532.18;999.90;;;16.70;99.90;;;;;;4930827;28;20920;-80
2022/08/08 09:34:24;;;;;;;1749.60;999.90;;;16.70;99.90;;;;;;4940112;28;20421;-80
2022/08/08 09:37:06;;;;;;;1824.55;999.90;;;16.70;99.90;;;;;;4937567;29;20886;-81
2022/08/08 09:40:04;;;;;;;1747.68;999.90;;;16.80;99.90;;;;;;4932012;29;20410;-80
2022/08/08 09:42:48;;;;;;;1835.10;999.90;;;16.80;99.90;;;;;;4932178;29;20496;-81
2022/08/08 09:45:29;;;;;;;1999.90;999.90;;;16.90;99.90;;;;;;4932068;29;20410;-82
2022/08/08 09:48:17;;;;;;;1643.78;999.90;;;17.00;99.90;;;;;;4937574;28;20405;-80
2022/08/08 09:50:59;;;;;;;1427.03;999.90;;;17.00;99.90;;;;;;4938366;28;20425;-81
2022/08/08 09:53:47;;;;;;;1769.18;999.90;;;16.90;99.90;;;;;;4923500;29;20414;-81
2022/08/08 09:56:32;;;;;;;1861.75;999.90;;;17.00;99.90;;;;;;4930318;29;20475;-81
2022/08/08 09:59:11;;;;;;;1440.80;999.90;;;17.10;99.90;;;;;;4921867;29;20499;-81
2022/08/08 10:02:01;;;;;;;1715.22;999.90;;;17.00;99.90;;;;;;4938441;29;20909;-80
2022/08/08 10:04:41;;;;;;;1854.55;999.90;;;17.00;99.90;;;;;;4936904;28;21376;-81
2022/08/08 10:07:15;;;;;;;1999.90;999.90;;;17.00;99.90;;;;;;4922936;29;20502;-81
2022/08/08 10:10:04;;;;;;;1682.13;999.90;;;17.10;99.90;;;;;;4927564;29;20406;-81
2022/08/08 10:12:36;;;;;;;1491.20;999.90;;;17.20;99.90;;;;;;4938928;28;20848;-81
2022/08/08 10:15:22;;;;;;;1489.45;999.90;;;17.20;99.90;;;;;;4919180;29;20434;-80
2022/08/08 10:17:53;;;;;;;1999.90;999.90;;;17.30;99.90;;;;;;4927119;29;20395;-80
2022/08/08 10:20:53;;;;;;;1418.03;999.90;;;17.40;99.90;;;;;;4921499;29;20422;-81
2022/08/08 10:23:47;;;;;;;1721.68;999.90;;;17.60;99.90;;;;;;4927532;29;20875;-81
2022/08/08 10:26:36;;;;;;;1692.20;999.90;;;17.60;99.90;;;;;;4928538;29;20473;-81
2022/08/08 10:29:54;;;;;;;1622.07;999.90;;;17.70;99.90;;;;;;4940128;29;20409;-80
2022/08/08 10:32:40;;;;;;;1568.72;999.90;;;17.70;99.90;;;;;;4927632;29;20424;-81
2022/08/08 10:35:20;;;;;;;1410.40;999.90;;;17.80;99.90;;;;;;4940915;28;20780;-80
2022/08/08 10:38:15;;;;;;;1834.87;999.90;;;17.70;99.90;;;;;;4916685;29;20403;-80
2022/08/08 10:40:44;;;;;;;1999.90;999.90;;;17.80;99.90;;;;;;4942475;29;20769;-81
2022/08/08 10:43:12;;;;;;;1758.28;999.90;;;17.80;99.90;;;;;;4917248;29;20399;-80
2022/08/08 10:45:49;;;;;;;1571.38;999.90;;;17.70;99.90;;;;;;4928069;29;20978;-80
2022/08/08 10:48:35;;;;;;;1735.32;999.90;;;17.90;99.90;;;;;;4942869;28;20529;-80
2022/08/08 10:51:34;;;;;;;1427.47;999.90;;;17.90;99.90;;;;;;4936500;29;20539;-80
2022/08/08 10:54:21;;;;;;;1594.82;999.90;;;18.10;99.90;;;;;;4922652;29;20475;-81
2022/08/08 10:57:07;;;;;;;1417.43;999.90;;;18.10;99.90;;;;;;4922759;29;20498;-80
2022/08/08 10:59:35;;;;;;;1725.60;999.90;;;18.00;99.90;;;;;;4919608;29;20432;-80
2022/08/08 11:02:09;;;;;;;1545.65;999.90;;;17.90;99.90;;;;;;4927944;29;20903;-81
2022/08/08 11:04:46;;;;;;;1345.97;999.90;;;17.80;99.90;;;;;;4925397;29;20921;-80
2022/08/08 11:07:31;;;;;;;1795.70;999.90;;;17.80;99.90;;;;;;4927062;29;20409;-80
2022/08/08 11:10:22;;;;;;;1999.90;999.90;;;17.70;99.90;;;;;;4942472;28;20406;-80
2022/08/08 11:13:01;;;;;;;1454.73;999.90;;;17.60;99.90;;;;;;4939598;28;20420;-80
2022/08/08 11:15:49;;;;;;;1614.90;999.90;;;17.60;99.90;;;;;;4931790;29;20473;-80
2022/08/08 11:18:29;;;;;;;1722.65;999.90;;;17.60;99.90;;;;;;4927603;29;20481;-81
2022/08/08 11:21:01;;;;;;;1618.85;999.90;;;17.60;99.90;;;;;;4924977;29;20415;-81
2022/08/08 11:23:40;;;;;;;1476.30;999.90;;;17.60;99.90;;;;;;4942296;28;20428;-80
2022/08/08 11:26:11;;;;;;;1776.85;999.90;;;17.60;99.90;;;;;;4931363;29;20426;-80
2022/08/08 11:28:48;;;;;;;1767.10;999.90;;;17.60;99.90;;;;;;4939496;28;20417;-81
2022/08/08 11:31:20;;;;;;;1632.45;999.90;;;17.60;99.90;;;;;;4919529;29;20419;-80
2022/08/08 11:33:51;;;;;;;1999.90;999.90;;;17.60;99.90;;;;;;4931370;29;20408;-80
2022/08/08 11:36:32;;;;;;;1657.47;999.90;;;17.50;99.90;;;;;;4916862;29;20402;-80
2022/08/08 11:39:04;;;;;;;1968.40;999.90;;;17.50;99.90;;;;;;4925051;29;20428;-80
2022/08/08 11:41:39;;;;;;;1702.80;999.90;;;17.40;99.90;;;;;;4924636;29;20401;-81
2022/08/08 11:44:10;;;;;;;1999.90;999.90;;;17.40;99.90;;;;;;4923820;29;20449;-80
2022/08/08 11:46:39;;;;;;;1700.80;999.90;;;17.40;99.90;;;;;;4927345;29;20413;-80
2022/08/08 11:49:11;;;;;;;1999.90;999.90;;;17.50;99.90;;;;;;4918752;29;20419;-81
2022/08/08 11:51:44;;;;;;;1999.90;999.90;;;17.60;99.90;;;;;;4939000;29;20491;-80
2022/08/08 11:54:42;;;;;;;1919.80;999.90;;;17.60;99.90;;;;;;4925835;29;20442;-80
2022/08/08 11:57:21;;;;;;;1775.47;999.90;;;17.60;99.90;;;;;;4928000;29;20406;-81
2022/08/08 12:00:04;;;;;;;1989.33;999.90;;;17.50;99.90;;;;;;4917885;29;20391;-81
2022/08/08 12:02:56;;;;;;;1999.90;999.90;;;17.50;99.90;;;;;;4923596;29;20414;-81
2022/08/08 12:05:33;;;;;;;1983.70;999.90;;;17.40;99.90;;;;;;4920916;29;20412;-80
2022/08/08 12:08:02;;;;;;;1802.50;999.90;;;17.40;99.90;;;;;;4928159;29;20517;-80
2022/08/08 12:10:30;;;;;;;1643.83;999.90;;;17.30;99.90;;;;;;4929450;28;20479;-80
2022/08/08 12:13:10;;;;;;;1546.90;999.90;;;17.40;99.90;;;;;;4925510;29;20471;-80
2022/08/08 12:15:47;;;;;;;1999.90;999.90;;;17.40;99.90;;;;;;4924705;29;20406;-81
2022/08/08 12:18:17;;;;;;;1999.90;999.90;;;17.40;99.90;;;;;;4922404;29;20415;-81
2022/08/08 12:20:54;;;;;;;1999.90;999.90;;;17.40;99.90;;;;;;4924141;29;20422;-80
2022/08/08 12:23:34;;;;;;;1999.90;999.90;;;17.50;99.90;;;;;;4921871;29;20474;-80
2022/08/08 12:26:19;;;;;;;1691.90;999.90;;;17.60;99.90;;;;;;4926887;29;20446;-81
2022/08/08 12:29:22;;;;;;;1610.93;999.90;;;17.60;99.90;;;;;;4923941;29;20819;-81
2022/08/08 12:32:15;;;;;;;1683.93;999.90;;;17.60;99.90;;;;;;4927467;29;20396;-81
2022/08/08 12:35:19;;;;;;;1924.67;999.90;;;17.60;99.90;;;;;;4923841;29;20498;-81
2022/08/08 12:38:04;;;;;;;1928.28;999.90;;;17.70;99.90;;;;;;4921209;29;20409;-80
2022/08/08 12:40:47;;;;;;;1949.20;999.90;;;17.70;99.90;;;;;;4917226;29;20463;-80
2022/08/08 12:43:34;;;;;;;1808.95;999.90;;;17.80;99.90;;;;;;4938934;29;20782;-80
2022/08/08 12:46:22;;;;;;;1713.73;999.90;;;17.80;99.90;;;;;;4929620;29;20410;-80
2022/08/08 12:48:58;;;;;;;1563.45;999.90;;;17.80;99.90;;;;;;4924664;29;20447;-80
2022/08/08 12:51:49;;;;;;;1750.07;999.90;;;17.90;99.90;;;;;;4924448;29;20448;-81
2022/08/08 12:54:31;;;;;;;1780.35;999.90;;;17.90;99.90;;;;;;4923534;29;20412;-81
2022/08/08 12:57:16;;;;;;;1574.47;999.90;;;18.00;99.90;;;;;;4921723;29;20409;-80
2022/08/08 12:59:50;;;;;;;1785.32;999.90;;;18.10;99.90;;;;;;4924049;29;20427;-80
2022/08/08 13:02:36;;;;;;;1789.57;999.90;;;18.00;99.90;;;;;;4922601;29;20465;-80
2022/08/08 13:05:21;;;;;;;1795.60;999.90;;;18.00;99.90;;;;;;4916437;29;20400;-80
2022/08/08 13:08:23;;;;;;;1730.05;999.90;;;17.90;99.90;;;;;;4938494;29;20397;-80
2022/08/08 13:11:07;;;;;;;1755.37;999.90;;;17.80;99.90;;;;;;4923448;29;20945;-80
2022/08/08 13:13:36;;;;;;;1988.88;999.90;;;17.70;99.90;;;;;;4925970;29;20645;-80
2022/08/08 13:16:23;;;;;;;1863.50;999.90;;;17.70;99.90;;;;;;4925563;29;20406;-81
2022/08/08 13:18:56;;;;;;;1989.03;999.90;;;17.60;99.90;;;;;;4925847;29;20501;-81
2022/08/08 13:21:44;;;;;;;1939.85;999.90;;;17.50;99.90;;;;;;4928396;29;20407;-81
2022/08/08 13:24:34;;;;;;;1999.90;999.90;;;17.40;99.90;;;;;;4940456;28;20738;-80
2022/08/08 13:27:20;;;;;;;1801.47;999.90;;;17.30;99.90;;;;;;4925857;29;20968;-81